createdAt,value
2017-02-26T00:00:44.443Z,7.63
2017-02-26T00:01:54.308Z,7.52
2017-02-26T00:03:03.807Z,7.53
2017-02-26T00:04:13.307Z,7.53
2017-02-26T00:05:23.557Z,7.55
2017-02-26T00:06:32.671Z,7.58
2017-02-26T00:07:42.138Z,7.55
2017-02-26T00:08:51.259Z,7.63
2017-02-26T00:10:00.757Z,7.55
2017-02-26T00:11:10.225Z,7.6
2017-02-26T00:12:20.070Z,7.58
2017-02-26T00:13:29.541Z,7.57
2017-02-26T00:14:38.246Z,7.49
2017-02-26T00:15:47.328Z,7.45
2017-02-26T00:16:56.803Z,7.48
2017-02-26T00:18:06.284Z,7.61
2017-02-26T00:19:16.151Z,7.64
2017-02-26T00:20:25.613Z,7.58
2017-02-26T00:21:34.703Z,7.57
2017-02-26T00:22:43.790Z,7.74
2017-02-26T00:23:53.655Z,7.77
2017-02-26T00:25:03.529Z,7.74
2017-02-26T00:26:13.772Z,7.74
2017-02-26T00:27:22.485Z,7.71
2017-02-26T00:28:32.716Z,7.53
2017-02-26T00:29:42.579Z,7.71
2017-02-26T00:30:52.085Z,7.69
2017-02-26T00:32:01.182Z,7.64
2017-02-26T00:33:10.674Z,7.71
2017-02-26T00:34:20.945Z,7.55
2017-02-26T00:35:30.810Z,7.48
2017-02-26T00:36:40.301Z,7.4
2017-02-26T00:37:49.786Z,7.3
2017-02-26T00:38:59.667Z,7.07
2017-02-26T00:40:08.812Z,6.91
2017-02-26T00:41:18.285Z,6.79
2017-02-26T00:42:26.991Z,6.74
2017-02-26T00:43:36.898Z,6.64
2017-02-26T00:44:45.982Z,6.55
2017-02-26T00:45:55.908Z,6.55
2017-02-26T00:47:05.012Z,6.48
2017-02-26T00:48:14.111Z,6.46
2017-02-26T00:49:23.596Z,6.34
2017-02-26T00:50:33.466Z,6.38
2017-02-26T00:51:42.949Z,6.34
2017-02-26T00:52:52.054Z,6.38
2017-02-26T00:54:02.007Z,6.21
2017-02-26T00:55:11.875Z,6.18
2017-02-26T00:56:21.349Z,6.12
2017-02-26T00:57:30.063Z,5.96
2017-02-26T00:58:39.930Z,5.99
2017-02-26T00:59:49.409Z,5.9
2017-02-26T01:00:58.879Z,5.9
2017-02-26T01:02:08.346Z,5.9
2017-02-26T01:03:18.224Z,5.83
2017-02-26T01:04:28.086Z,5.86
2017-02-26T01:05:37.557Z,5.81
2017-02-26T01:06:46.261Z,5.75
2017-02-26T01:07:55.368Z,5.71
2017-02-26T01:09:05.216Z,5.89
2017-02-26T01:10:14.323Z,5.86
2017-02-26T01:11:23.416Z,5.79
2017-02-26T01:12:32.521Z,5.79
2017-02-26T01:13:42.392Z,5.76
2017-02-26T01:14:51.105Z,5.94
2017-02-26T01:16:00.580Z,5.97
2017-02-26T01:17:10.440Z,6.11
2017-02-26T01:18:20.352Z,6.21
2017-02-26T01:19:30.220Z,6.18
2017-02-26T01:20:39.320Z,6.18
2017-02-26T01:21:48.800Z,6.27
2017-02-26T01:22:58.680Z,6.19
2017-02-26T01:24:08.589Z,6.08
2017-02-26T01:25:18.063Z,6.14
2017-02-26T01:26:27.550Z,6.15
2017-02-26T01:27:37.076Z,6.12
2017-02-26T01:28:46.191Z,6.12
2017-02-26T01:29:55.725Z,6.03
2017-02-26T01:31:05.985Z,6.03
2017-02-26T01:32:15.841Z,6.09
2017-02-26T01:33:26.089Z,6.12
2017-02-26T01:34:35.948Z,6.09
2017-02-26T01:35:45.869Z,6.14
2017-02-26T01:36:54.977Z,6.15
2017-02-26T01:38:04.467Z,6.08
2017-02-26T01:39:13.953Z,6.19
2017-02-26T01:40:23.833Z,6.18
2017-02-26T01:41:32.944Z,6.18
2017-02-26T01:42:42.403Z,6.22
2017-02-26T01:43:51.126Z,6.28
2017-02-26T01:44:59.841Z,6.36
2017-02-26T01:46:08.933Z,6.41
2017-02-26T01:47:18.422Z,6.49
2017-02-26T01:48:27.129Z,6.59
2017-02-26T01:49:36.608Z,6.52
2017-02-26T01:50:46.087Z,6.55
2017-02-26T01:51:56.332Z,6.46
2017-02-26T01:53:05.810Z,6.44
2017-02-26T01:54:15.312Z,6.3
2017-02-26T01:55:24.802Z,6.34
2017-02-26T01:56:34.664Z,6.4
2017-02-26T01:57:44.157Z,6.37
2017-02-26T01:58:54.012Z,6.38
2017-02-26T02:00:03.494Z,6.44
2017-02-26T02:01:12.983Z,6.31
2017-02-26T02:02:22.838Z,6.33
2017-02-26T02:03:32.293Z,6.44
2017-02-26T02:04:41.772Z,6.46
2017-02-26T02:05:51.248Z,6.46
2017-02-26T02:07:00.738Z,6.58
2017-02-26T02:08:10.222Z,6.59
2017-02-26T02:09:19.695Z,6.56
2017-02-26T02:10:29.557Z,6.64
2017-02-26T02:11:38.659Z,6.58
2017-02-26T02:12:47.777Z,6.67
2017-02-26T02:13:57.278Z,6.66
2017-02-26T02:15:06.388Z,6.77
2017-02-26T02:16:15.113Z,6.79
2017-02-26T02:17:24.990Z,6.88
2017-02-26T02:18:34.092Z,6.81
2017-02-26T02:19:43.566Z,6.84
2017-02-26T02:20:52.678Z,6.91
2017-02-26T02:22:01.827Z,6.74
2017-02-26T02:23:11.329Z,6.77
2017-02-26T02:24:21.191Z,6.79
2017-02-26T02:25:30.679Z,6.8
2017-02-26T02:26:39.778Z,6.8
2017-02-26T02:27:49.249Z,6.81
2017-02-26T02:28:58.720Z,6.87
2017-02-26T02:30:07.808Z,6.97
2017-02-26T02:31:17.285Z,7.03
2017-02-26T02:32:27.163Z,6.95
2017-02-26T02:33:37.009Z,7.03
2017-02-26T02:34:47.277Z,6.97
2017-02-26T02:35:57.138Z,6.94
2017-02-26T02:37:06.611Z,6.95
2017-02-26T02:38:16.077Z,6.98
2017-02-26T02:39:25.552Z,6.94
2017-02-26T02:40:34.255Z,7.1
2017-02-26T02:41:43.358Z,7.09
2017-02-26T02:42:52.856Z,7.16
2017-02-26T02:44:02.324Z,7.23
2017-02-26T02:45:11.487Z,7.27
2017-02-26T02:46:21.742Z,7.23
2017-02-26T02:47:30.848Z,7.17
2017-02-26T02:48:39.928Z,7.13
2017-02-26T02:49:49.801Z,7.2
2017-02-26T02:50:58.901Z,7.1
2017-02-26T02:52:08.364Z,7.1
2017-02-26T02:53:17.443Z,7.05
2017-02-26T02:54:26.547Z,7.06
2017-02-26T02:55:36.021Z,7.12
2017-02-26T02:56:44.782Z,7.06
2017-02-26T02:57:54.281Z,7.1
2017-02-26T02:59:03.749Z,7.09
2017-02-26T03:00:13.596Z,7.07
2017-02-26T03:01:23.075Z,7.1
2017-02-26T03:02:32.987Z,7.09
2017-02-26T03:03:42.466Z,7.1
2017-02-26T03:04:52.367Z,7.09
2017-02-26T03:06:01.461Z,7.1
2017-02-26T03:07:10.565Z,7.25
2017-02-26T03:08:20.057Z,7.25
2017-02-26T03:09:29.928Z,7.25
2017-02-26T03:10:39.422Z,7.28
2017-02-26T03:11:48.885Z,7.42
2017-02-26T03:12:57.617Z,7.34
2017-02-26T03:14:06.713Z,7.35
2017-02-26T03:15:15.421Z,7.3
2017-02-26T03:16:24.933Z,7.25
2017-02-26T03:17:34.015Z,7.16
2017-02-26T03:18:43.908Z,7.1
2017-02-26T03:19:54.160Z,7.1
2017-02-26T03:21:03.640Z,7.09
2017-02-26T03:22:13.884Z,7.07
2017-02-26T03:23:23.741Z,7.1
2017-02-26T03:24:33.606Z,7.1
2017-02-26T03:25:43.470Z,7.09
2017-02-26T03:26:53.354Z,7.1
2017-02-26T03:28:03.241Z,7.09
2017-02-26T03:29:12.720Z,7.1
2017-02-26T03:30:22.212Z,7.24
2017-02-26T03:31:31.739Z,7.16
2017-02-26T03:32:41.233Z,7.16
2017-02-26T03:33:50.339Z,7.13
2017-02-26T03:34:59.438Z,7.25
2017-02-26T03:36:08.144Z,7.27
2017-02-26T03:37:17.244Z,7.3
2017-02-26T03:38:26.740Z,7.37
2017-02-26T03:39:36.220Z,7.5
2017-02-26T03:40:44.935Z,7.45
2017-02-26T03:41:55.578Z,7.34
2017-02-26T03:43:05.856Z,7.24
2017-02-26T03:44:14.961Z,7.25
2017-02-26T03:45:24.445Z,7.28
2017-02-26T03:46:33.560Z,7.34
2017-02-26T03:47:42.257Z,7.37
2017-02-26T03:48:52.169Z,7.31
2017-02-26T03:50:01.649Z,7.27
2017-02-26T03:51:11.527Z,7.24
2017-02-26T03:52:21.021Z,7.17
2017-02-26T03:53:30.890Z,7.2
2017-02-26T03:54:40.751Z,7.17
2017-02-26T03:55:49.867Z,7.27
2017-02-26T03:56:59.361Z,7.25
2017-02-26T03:58:09.212Z,7.25
2017-02-26T03:59:19.068Z,7.28
2017-02-26T04:00:28.155Z,7.3
2017-02-26T04:01:37.645Z,7.27
2017-02-26T04:02:47.946Z,7.21
2017-02-26T04:03:58.182Z,7.3
2017-02-26T04:05:07.293Z,7.34
2017-02-26T04:06:16.550Z,7.52
2017-02-26T04:07:26.408Z,7.46
2017-02-26T04:08:36.303Z,7.39
2017-02-26T04:09:45.431Z,7.43
2017-02-26T04:10:54.903Z,7.39
2017-02-26T04:12:04.006Z,7.37
2017-02-26T04:13:13.476Z,7.37
2017-02-26T04:14:24.132Z,7.35
2017-02-26T04:15:33.230Z,7.24
2017-02-26T04:16:42.774Z,7.31
2017-02-26T04:17:51.870Z,7.31
2017-02-26T04:19:02.128Z,7.28
2017-02-26T04:20:11.987Z,7.24
2017-02-26T04:21:21.492Z,7.28
2017-02-26T04:22:30.978Z,7.32
2017-02-26T04:23:40.854Z,7.23
2017-02-26T04:24:50.713Z,7.25
2017-02-26T04:26:00.594Z,7.21
2017-02-26T04:27:10.060Z,7.28
2017-02-26T04:28:19.150Z,7.3
2017-02-26T04:29:28.678Z,7.27
2017-02-26T04:30:38.154Z,7.37
2017-02-26T04:31:48.010Z,7.37
2017-02-26T04:32:57.486Z,7.37
2017-02-26T04:34:06.949Z,7.39
2017-02-26T04:35:17.183Z,7.43
2017-02-26T04:36:26.678Z,7.55
2017-02-26T04:37:36.172Z,7.53
2017-02-26T04:38:45.258Z,7.53
2017-02-26T04:39:55.126Z,7.46
2017-02-26T04:41:04.610Z,7.46
2017-02-26T04:42:13.318Z,7.43
2017-02-26T04:43:22.795Z,7.45
2017-02-26T04:44:31.887Z,7.57
2017-02-26T04:45:40.962Z,7.53
2017-02-26T04:46:51.194Z,7.5
2017-02-26T04:48:01.050Z,7.5
2017-02-26T04:49:10.519Z,7.34
2017-02-26T04:50:20.022Z,7.42
2017-02-26T04:51:29.126Z,7.46
2017-02-26T04:52:38.267Z,7.5
2017-02-26T04:53:47.748Z,7.5
2017-02-26T04:54:57.222Z,7.46
2017-02-26T04:56:06.685Z,7.48
2017-02-26T04:57:16.165Z,7.43
2017-02-26T04:58:25.659Z,7.46
2017-02-26T04:59:34.356Z,7.49
2017-02-26T05:00:43.458Z,7.49
2017-02-26T05:01:52.550Z,7.57
2017-02-26T05:03:01.266Z,7.68
2017-02-26T05:04:11.183Z,7.71
2017-02-26T05:05:20.678Z,7.63
2017-02-26T05:06:30.146Z,7.58
2017-02-26T05:07:39.231Z,7.57
2017-02-26T05:08:49.095Z,7.45
2017-02-26T05:09:59.392Z,7.49
2017-02-26T05:11:09.258Z,7.6
2017-02-26T05:12:18.742Z,7.57
2017-02-26T05:13:27.456Z,7.53
2017-02-26T05:14:36.549Z,7.64
2017-02-26T05:15:46.413Z,7.6
2017-02-26T05:16:56.274Z,7.58
2017-02-26T05:18:06.143Z,7.52
2017-02-26T05:19:16.019Z,7.5
2017-02-26T05:20:25.516Z,7.53
2017-02-26T05:21:35.415Z,7.52
2017-02-26T05:22:44.519Z,7.45
2017-02-26T05:23:53.994Z,7.5
2017-02-26T05:25:03.461Z,7.52
2017-02-26T05:26:12.935Z,7.5
2017-02-26T05:27:22.474Z,7.37
2017-02-26T05:28:31.942Z,7.39
2017-02-26T05:29:41.801Z,7.35
2017-02-26T05:30:51.277Z,7.4
2017-02-26T05:32:01.156Z,7.42
2017-02-26T05:33:09.854Z,7.55
2017-02-26T05:34:18.948Z,7.63
2017-02-26T05:35:28.828Z,7.53
2017-02-26T05:36:38.312Z,7.48
2017-02-26T05:37:48.183Z,7.37
2017-02-26T05:38:58.455Z,7.21
2017-02-26T05:40:07.548Z,7.07
2017-02-26T05:41:16.644Z,6.94
2017-02-26T05:42:26.166Z,6.77
2017-02-26T05:43:36.013Z,6.79
2017-02-26T05:44:45.564Z,6.77
2017-02-26T05:45:54.273Z,6.79
2017-02-26T05:47:03.760Z,6.71
2017-02-26T05:48:13.251Z,6.74
2017-02-26T05:49:22.333Z,6.67
2017-02-26T05:50:31.820Z,6.67
2017-02-26T05:51:40.916Z,6.61
2017-02-26T05:52:50.782Z,6.56
2017-02-26T05:54:00.256Z,6.56
2017-02-26T05:55:09.352Z,6.64
2017-02-26T05:56:19.597Z,6.73
2017-02-26T05:57:28.698Z,6.59
2017-02-26T05:58:38.178Z,6.55
2017-02-26T05:59:47.287Z,6.58
2017-02-26T06:00:57.532Z,6.52
2017-02-26T06:02:07.032Z,6.51
2017-02-26T06:03:15.737Z,6.4
2017-02-26T06:04:24.433Z,6.19
2017-02-26T06:05:33.519Z,6.15
2017-02-26T06:06:42.587Z,6.11
2017-02-26T06:07:52.070Z,6.12
2017-02-26T06:09:01.180Z,6.12
2017-02-26T06:10:11.444Z,6.12
2017-02-26T06:11:20.935Z,6.14
2017-02-26T06:12:30.034Z,6.04
2017-02-26T06:13:39.881Z,6.03
2017-02-26T06:14:48.967Z,6.11
2017-02-26T06:15:58.821Z,6.15
2017-02-26T06:17:07.902Z,6.11
2017-02-26T06:18:16.981Z,6.04
2017-02-26T06:19:26.117Z,6.04
2017-02-26T06:20:35.992Z,6.09
2017-02-26T06:21:45.111Z,6.15
2017-02-26T06:22:54.201Z,6.19
2017-02-26T06:24:04.451Z,6.27
2017-02-26T06:25:14.319Z,6.36
2017-02-26T06:26:23.407Z,6.37
2017-02-26T06:27:32.882Z,6.37
2017-02-26T06:28:41.603Z,6.36
2017-02-26T06:29:50.685Z,6.4
2017-02-26T06:31:00.276Z,6.46
2017-02-26T06:32:10.543Z,6.46
2017-02-26T06:33:20.016Z,6.48
2017-02-26T06:34:29.476Z,6.46
2017-02-26T06:35:38.569Z,6.43
2017-02-26T06:36:48.489Z,6.44
2017-02-26T06:37:58.341Z,6.54
2017-02-26T06:39:07.052Z,6.52
2017-02-26T06:40:17.680Z,6.61
2017-02-26T06:41:27.921Z,6.67
2017-02-26T06:42:37.388Z,6.64
2017-02-26T06:43:46.916Z,6.62
2017-02-26T06:44:56.394Z,6.59
2017-02-26T06:46:05.881Z,6.79
2017-02-26T06:47:14.980Z,6.76
2017-02-26T06:48:24.093Z,6.7
2017-02-26T06:49:33.581Z,6.77
2017-02-26T06:50:42.697Z,6.89
2017-02-26T06:51:51.418Z,6.91
2017-02-26T06:53:02.050Z,6.94
2017-02-26T06:54:11.517Z,7.1
2017-02-26T06:55:21.383Z,7.1
2017-02-26T06:56:30.521Z,7.09
2017-02-26T06:57:40.001Z,7.09
2017-02-26T06:58:49.486Z,7.05
2017-02-26T06:59:58.950Z,6.97
2017-02-26T07:01:08.430Z,7.07
2017-02-26T07:02:17.934Z,7.13
2017-02-26T07:03:27.037Z,7.3
2017-02-26T07:04:36.504Z,7.31
2017-02-26T07:05:46.374Z,7.24
2017-02-26T07:06:56.231Z,7.28
2017-02-26T07:08:05.341Z,7.23
2017-02-26T07:09:14.812Z,7.21
2017-02-26T07:10:24.305Z,7.21
2017-02-26T07:11:33.029Z,7.27
2017-02-26T07:12:42.515Z,7.16
2017-02-26T07:13:51.239Z,7.17
2017-02-26T07:15:00.364Z,7.12
2017-02-26T07:16:10.608Z,7.27
2017-02-26T07:17:19.686Z,7.24
2017-02-26T07:18:28.785Z,7.24
2017-02-26T07:19:37.867Z,7.12
2017-02-26T07:20:46.980Z,7.09
2017-02-26T07:21:56.874Z,7.13
2017-02-26T07:23:05.987Z,7.09
2017-02-26T07:24:15.832Z,7.25
2017-02-26T07:25:25.309Z,7.28
2017-02-26T07:26:34.795Z,7.28
2017-02-26T07:27:44.262Z,7.3
2017-02-26T07:28:54.144Z,7.32
2017-02-26T07:30:03.996Z,7.35
2017-02-26T07:31:13.075Z,7.4
2017-02-26T07:32:21.809Z,7.43
2017-02-26T07:33:31.664Z,7.5
2017-02-26T07:34:41.534Z,7.53
2017-02-26T07:35:51.004Z,7.46
2017-02-26T07:37:00.476Z,7.46
2017-02-26T07:38:10.370Z,7.5
2017-02-26T07:39:20.645Z,7.52
2017-02-26T07:40:30.194Z,7.46
2017-02-26T07:41:39.690Z,7.53
2017-02-26T07:42:49.170Z,7.46
2017-02-26T07:43:59.058Z,7.5
2017-02-26T07:45:08.546Z,7.53
2017-02-26T07:46:18.479Z,7.53
2017-02-26T07:47:27.583Z,7.48
2017-02-26T07:48:37.067Z,7.5
2017-02-26T07:49:47.317Z,7.57
2017-02-26T07:50:56.796Z,7.53
2017-02-26T07:52:06.323Z,7.52
2017-02-26T07:53:15.410Z,7.52
2017-02-26T07:54:24.879Z,7.61
2017-02-26T07:55:34.381Z,7.6
2017-02-26T07:56:43.856Z,7.55
2017-02-26T07:57:53.327Z,7.5
2017-02-26T07:59:02.463Z,7.43
2017-02-26T08:00:11.553Z,7.52
2017-02-26T08:01:20.642Z,7.5
2017-02-26T08:02:29.755Z,7.52
2017-02-26T08:03:38.843Z,7.5
2017-02-26T08:04:47.930Z,7.57
2017-02-26T08:05:57.426Z,7.45
2017-02-26T08:07:07.668Z,7.49
2017-02-26T08:08:17.168Z,7.48
2017-02-26T08:09:26.286Z,7.55
2017-02-26T08:10:35.770Z,7.52
2017-02-26T08:11:45.632Z,7.37
2017-02-26T08:12:55.501Z,7.35
2017-02-26T08:14:04.975Z,7.27
2017-02-26T08:15:14.067Z,7.15
2017-02-26T08:16:23.560Z,7.15
2017-02-26T08:17:32.643Z,7.09
2017-02-26T08:18:42.173Z,7.06
2017-02-26T08:19:51.647Z,7.06
2017-02-26T08:21:01.146Z,7.06
2017-02-26T08:22:10.234Z,7.24
2017-02-26T08:23:18.979Z,7.43
2017-02-26T08:24:28.471Z,7.57
2017-02-26T08:25:37.170Z,7.68
2017-02-26T08:26:46.656Z,7.75
2017-02-26T08:27:55.761Z,7.83
2017-02-26T08:29:05.623Z,8
2017-02-26T08:30:14.338Z,8.07
2017-02-26T08:31:23.831Z,8.15
2017-02-26T08:32:32.563Z,8.34
2017-02-26T08:33:42.035Z,8.53
2017-02-26T08:34:51.886Z,8.66
2017-02-26T08:36:01.371Z,8.7
2017-02-26T08:37:10.849Z,8.66
2017-02-26T08:38:19.994Z,8.59
2017-02-26T08:39:29.466Z,8.44
2017-02-26T08:40:38.557Z,8.45
2017-02-26T08:41:48.422Z,8.43
2017-02-26T08:42:58.275Z,8.52
2017-02-26T08:44:06.993Z,8.47
2017-02-26T08:45:16.090Z,8.61
2017-02-26T08:46:26.737Z,8.45
2017-02-26T08:47:35.841Z,8.56
2017-02-26T08:48:44.944Z,8.52
2017-02-26T08:49:55.184Z,8.45
2017-02-26T08:51:04.676Z,8.37
2017-02-26T08:52:13.775Z,8.43
2017-02-26T08:53:23.651Z,8.34
2017-02-26T08:54:33.121Z,8.34
2017-02-26T08:55:42.653Z,8.29
2017-02-26T08:56:51.754Z,8.25
2017-02-26T08:58:01.228Z,8.19
2017-02-26T08:59:11.094Z,8.16
2017-02-26T09:00:20.189Z,8.11
2017-02-26T09:01:30.449Z,8.2
2017-02-26T09:02:40.329Z,8.22
2017-02-26T09:03:49.044Z,8.3
2017-02-26T09:04:58.527Z,8.34
2017-02-26T09:06:08.029Z,8.26
2017-02-26T09:07:17.883Z,8.18
2017-02-26T09:08:27.378Z,8.18
2017-02-26T09:10:53.054Z,8.19
2017-02-26T09:12:02.907Z,8.23
2017-02-26T09:13:12.366Z,8.08
2017-02-26T09:14:22.606Z,8.15
2017-02-26T09:15:32.446Z,8.23
2017-02-26T09:16:42.687Z,8.08
2017-02-26T09:17:52.159Z,8.05
2017-02-26T09:19:01.243Z,7.86
2017-02-26T09:20:09.955Z,7.64
2017-02-26T09:21:19.055Z,7.63
2017-02-26T09:22:28.520Z,7.58
2017-02-26T09:23:37.998Z,7.5
2017-02-26T09:24:47.495Z,7.49
2017-02-26T09:25:56.973Z,7.48
2017-02-26T09:27:06.465Z,7.52
2017-02-26T09:28:15.940Z,7.55
2017-02-26T09:29:26.186Z,7.64
2017-02-26T09:30:36.036Z,7.79
2017-02-26T09:31:45.945Z,7.93
2017-02-26T09:32:55.035Z,7.83
2017-02-26T09:34:04.899Z,7.93
2017-02-26T09:35:14.375Z,7.95
2017-02-26T09:36:23.459Z,7.92
2017-02-26T09:37:32.560Z,7.79
2017-02-26T09:38:42.841Z,7.72
2017-02-26T09:39:52.318Z,7.61
2017-02-26T09:41:01.787Z,7.64
2017-02-26T09:42:11.270Z,7.58
2017-02-26T09:43:20.771Z,7.58
2017-02-26T09:44:30.233Z,7.6
2017-02-26T09:45:39.329Z,7.58
2017-02-26T09:46:48.789Z,7.6
2017-02-26T09:47:57.507Z,7.55
2017-02-26T09:49:06.983Z,7.57
2017-02-26T09:50:16.815Z,7.68
2017-02-26T09:51:25.915Z,7.72
2017-02-26T09:52:35.773Z,7.8
2017-02-26T09:53:45.655Z,7.86
2017-02-26T09:54:55.702Z,7.8
2017-02-26T09:56:05.193Z,7.77
2017-02-26T09:57:14.669Z,7.87
2017-02-26T09:58:24.547Z,7.82
2017-02-26T09:59:34.791Z,7.82
2017-02-26T10:00:45.014Z,7.85
2017-02-26T10:01:54.489Z,7.93
2017-02-26T10:03:03.586Z,8.05
2017-02-26T10:04:13.446Z,8
2017-02-26T10:05:22.521Z,8.16
2017-02-26T10:06:32.778Z,8.15
2017-02-26T10:07:42.625Z,8.05
2017-02-26T10:08:51.725Z,8.01
2017-02-26T10:10:01.576Z,7.97
2017-02-26T10:11:11.429Z,7.92
2017-02-26T10:12:21.674Z,7.85
2017-02-26T10:13:31.132Z,7.85
2017-02-26T10:14:40.597Z,7.9
2017-02-26T10:15:50.845Z,7.79
2017-02-26T10:16:59.931Z,7.89
2017-02-26T10:18:09.415Z,7.87
2017-02-26T10:19:20.020Z,7.74
2017-02-26T10:20:29.492Z,7.68
2017-02-26T10:21:39.732Z,7.79
2017-02-26T10:22:48.450Z,7.71
2017-02-26T10:23:57.932Z,7.74
2017-02-26T10:25:07.383Z,7.85
2017-02-26T10:26:16.718Z,7.95
2017-02-26T10:27:26.221Z,8.04
2017-02-26T10:28:35.308Z,8
2017-02-26T10:29:44.788Z,7.98
2017-02-26T10:30:54.645Z,8.18
2017-02-26T10:32:04.116Z,8.15
2017-02-26T10:33:13.601Z,8.18
2017-02-26T10:34:23.450Z,8.26
2017-02-26T10:35:32.537Z,8.3
2017-02-26T10:36:41.625Z,8.28
2017-02-26T10:37:50.355Z,8.11
2017-02-26T10:38:59.830Z,8.15
2017-02-26T10:40:09.324Z,8.19
2017-02-26T10:41:18.818Z,8.18
2017-02-26T10:42:28.310Z,8.23
2017-02-26T10:43:38.555Z,8.33
2017-02-26T10:44:47.638Z,8.37
2017-02-26T10:45:57.503Z,8.52
2017-02-26T10:47:06.595Z,8.52
2017-02-26T10:48:16.471Z,8.62
2017-02-26T10:49:25.942Z,8.65
2017-02-26T10:50:34.683Z,8.63
2017-02-26T10:51:44.531Z,8.65
2017-02-26T10:52:53.991Z,8.58
2017-02-26T10:54:03.882Z,8.48
2017-02-26T10:55:13.756Z,8.45
2017-02-26T10:56:23.984Z,8.62
2017-02-26T10:57:33.060Z,8.7
2017-02-26T10:58:42.530Z,8.73
2017-02-26T10:59:52.018Z,8.79
2017-02-26T11:01:00.741Z,8.74
2017-02-26T11:02:10.226Z,8.87
2017-02-26T11:03:19.707Z,8.76
2017-02-26T11:04:29.187Z,8.71
2017-02-26T11:05:38.657Z,8.71
2017-02-26T11:06:47.764Z,8.59
2017-02-26T11:07:58.011Z,8.45
2017-02-26T11:09:07.900Z,8.38
2017-02-26T11:10:18.159Z,8.41
2017-02-26T11:11:28.022Z,8.41
2017-02-26T11:12:37.898Z,8.4
2017-02-26T11:13:47.400Z,8.34
2017-02-26T11:14:56.509Z,8.58
2017-02-26T11:16:05.983Z,8.73
2017-02-26T11:17:15.085Z,8.79
2017-02-26T11:18:24.198Z,8.86
2017-02-26T11:19:34.421Z,8.92
2017-02-26T11:20:44.279Z,8.91
2017-02-26T11:21:52.979Z,8.83
2017-02-26T11:23:02.444Z,8.98
2017-02-26T11:24:12.315Z,8.99
2017-02-26T11:25:22.566Z,9.05
2017-02-26T11:26:32.808Z,9.14
2017-02-26T11:27:41.910Z,9.08
2017-02-26T11:28:50.995Z,9.17
2017-02-26T11:30:01.236Z,9.02
2017-02-26T11:31:11.103Z,9.13
2017-02-26T11:32:19.822Z,9.1
2017-02-26T11:33:29.295Z,9.26
2017-02-26T11:34:39.140Z,9.4
2017-02-26T11:35:49.427Z,9.38
2017-02-26T11:36:58.917Z,9.4
2017-02-26T11:38:08.769Z,9.4
2017-02-26T11:39:17.491Z,9.32
2017-02-26T11:40:27.338Z,9.28
2017-02-26T11:41:36.418Z,9.18
2017-02-26T11:42:46.299Z,9.17
2017-02-26T11:43:56.535Z,9.18
2017-02-26T11:45:06.017Z,9.2
2017-02-26T11:46:15.493Z,9.17
2017-02-26T11:47:25.728Z,8.96
2017-02-26T11:48:35.603Z,8.95
2017-02-26T11:49:45.070Z,8.84
2017-02-26T11:50:53.776Z,8.8
2017-02-26T11:52:04.048Z,8.8
2017-02-26T11:53:13.524Z,8.79
2017-02-26T11:54:23.385Z,8.89
2017-02-26T11:55:32.868Z,8.98
2017-02-26T11:56:42.354Z,8.89
2017-02-26T11:57:51.812Z,8.83
2017-02-26T11:59:01.327Z,8.73
2017-02-26T12:00:11.178Z,8.74
2017-02-26T12:01:21.031Z,8.73
2017-02-26T12:02:30.888Z,8.73
2017-02-26T12:03:40.750Z,8.77
2017-02-26T12:04:51.003Z,8.86
2017-02-26T12:06:00.875Z,8.92
2017-02-26T12:07:10.743Z,9.18
2017-02-26T12:08:20.222Z,9.39
2017-02-26T12:09:30.116Z,9.39
2017-02-26T12:10:39.994Z,9.39
2017-02-26T12:11:49.867Z,9.38
2017-02-26T12:12:59.329Z,9.57
2017-02-26T12:14:08.799Z,9.74
2017-02-26T12:15:17.890Z,9.99
2017-02-26T12:16:28.128Z,10.02
2017-02-26T12:17:38.017Z,10.04
2017-02-26T12:18:47.875Z,9.97
2017-02-26T12:19:57.347Z,10.04
2017-02-26T12:21:06.615Z,10.09
2017-02-26T12:22:16.853Z,9.84
2017-02-26T12:23:26.714Z,9.86
2017-02-26T12:24:35.814Z,9.81
2017-02-26T12:25:44.916Z,9.79
2017-02-26T12:26:54.391Z,9.91
2017-02-26T12:28:03.493Z,9.94
2017-02-26T12:29:13.760Z,9.99
2017-02-26T12:30:22.870Z,10.14
2017-02-26T12:31:31.954Z,10.05
2017-02-26T12:32:41.071Z,10.11
2017-02-26T12:33:50.169Z,9.97
2017-02-26T12:34:59.987Z,10.01
2017-02-26T12:36:09.081Z,9.94
2017-02-26T12:37:17.792Z,10.02
2017-02-26T12:38:26.999Z,10.09
2017-02-26T12:39:36.725Z,10.15
2017-02-26T12:40:45.820Z,10.2
2017-02-26T12:41:55.690Z,10.22
2017-02-26T12:43:04.826Z,10.25
2017-02-26T12:44:14.295Z,10.25
2017-02-26T12:45:23.236Z,10.33
2017-02-26T12:46:32.729Z,10.51
2017-02-26T12:47:42.588Z,10.45
2017-02-26T12:48:52.455Z,10.48
2017-02-26T12:50:02.322Z,10.53
2017-02-26T12:51:11.797Z,10.53
2017-02-26T12:52:21.320Z,10.67
2017-02-26T12:53:30.468Z,10.63
2017-02-26T12:54:39.591Z,10.67
2017-02-26T12:55:49.088Z,10.64
2017-02-26T12:56:58.197Z,10.86
2017-02-26T12:58:07.292Z,10.89
2017-02-26T12:59:17.580Z,11
2017-02-26T13:00:27.439Z,10.97
2017-02-26T13:01:36.541Z,10.88
2017-02-26T13:02:46.494Z,10.96
2017-02-26T13:03:56.361Z,11.06
2017-02-26T13:05:05.846Z,11.15
2017-02-26T13:06:16.089Z,11.27
2017-02-26T13:07:25.553Z,11.32
2017-02-26T13:08:34.647Z,11.24
2017-02-26T13:09:43.745Z,11.19
2017-02-26T13:10:52.833Z,11.29
2017-02-26T13:12:02.727Z,11.19
2017-02-26T13:13:11.810Z,11.4
2017-02-26T13:14:21.305Z,11.27
2017-02-26T13:15:31.166Z,11.37
2017-02-26T13:16:41.023Z,11.36
2017-02-26T13:17:49.723Z,11.36
2017-02-26T13:18:59.583Z,11.35
2017-02-26T13:20:09.079Z,11.33
2017-02-26T13:21:18.160Z,11.36
2017-02-26T13:22:27.245Z,11.42
2017-02-26T13:23:36.826Z,11.36
2017-02-26T13:24:47.821Z,11.55
2017-02-26T13:25:57.679Z,11.43
2017-02-26T13:27:08.330Z,11.54
2017-02-26T13:28:17.111Z,11.64
2017-02-26T13:29:26.203Z,11.67
2017-02-26T13:30:35.312Z,11.55
2017-02-26T13:31:44.419Z,11.54
2017-02-26T13:32:53.876Z,11.61
2017-02-26T13:34:03.354Z,11.49
2017-02-26T13:35:12.456Z,11.52
2017-02-26T13:36:21.603Z,11.58
2017-02-26T13:37:30.706Z,11.54
2017-02-26T13:38:40.229Z,11.65
2017-02-26T13:39:50.092Z,11.46
2017-02-26T13:40:59.944Z,11.37
2017-02-26T13:42:08.650Z,11.28
2017-02-26T13:43:18.904Z,11.14
2017-02-26T13:44:28.395Z,11.14
2017-02-26T13:45:38.677Z,11.11
2017-02-26T13:46:48.536Z,11.1
2017-02-26T13:47:58.016Z,11.19
2017-02-26T13:49:06.735Z,11.14
2017-02-26T13:50:15.858Z,11.03
2017-02-26T13:51:25.347Z,10.91
2017-02-26T13:52:34.816Z,10.85
2017-02-26T13:53:43.916Z,10.92
2017-02-26T13:54:53.403Z,11.07
2017-02-26T13:56:03.275Z,11.14
2017-02-26T13:57:13.136Z,11.22
2017-02-26T13:58:22.995Z,11.07
2017-02-26T13:59:32.841Z,11
2017-02-26T14:00:43.153Z,10.92
2017-02-26T14:01:52.652Z,10.88
2017-02-26T14:03:02.526Z,10.7
2017-02-26T14:04:12.010Z,10.76
2017-02-26T14:05:20.723Z,10.64
2017-02-26T14:06:30.571Z,10.61
2017-02-26T14:07:40.036Z,10.61
2017-02-26T14:08:49.512Z,10.74
2017-02-26T14:09:59.367Z,10.68
2017-02-26T14:11:08.849Z,10.68
2017-02-26T14:12:18.361Z,10.78
2017-02-26T14:13:27.495Z,10.85
2017-02-26T14:14:37.408Z,10.7
2017-02-26T14:15:46.506Z,10.79
2017-02-26T14:16:56.384Z,10.88
2017-02-26T14:18:06.632Z,10.92
2017-02-26T14:19:16.876Z,10.88
2017-02-26T14:20:26.722Z,10.78
2017-02-26T14:21:36.188Z,10.86
2017-02-26T14:22:45.293Z,10.86
2017-02-26T14:23:54.787Z,10.84
2017-02-26T14:25:04.650Z,10.82
2017-02-26T14:26:14.125Z,10.99
2017-02-26T14:27:24.385Z,10.94
2017-02-26T14:28:34.257Z,10.94
2017-02-26T14:29:44.106Z,11.06
2017-02-26T14:30:53.205Z,11.07
2017-02-26T14:32:03.081Z,11.07
2017-02-26T14:33:12.572Z,10.97
2017-02-26T14:34:22.828Z,10.94
2017-02-26T14:35:31.946Z,11
2017-02-26T14:36:41.439Z,11.06
2017-02-26T14:37:50.576Z,11.1
2017-02-26T14:38:59.713Z,11.15
2017-02-26T14:40:09.191Z,11.21
2017-02-26T14:41:19.059Z,11.21
2017-02-26T14:42:28.947Z,11.28
2017-02-26T14:43:38.806Z,11.32
2017-02-26T14:44:47.524Z,11.36
2017-02-26T14:45:57.062Z,11.42
2017-02-26T14:47:06.515Z,11.35
2017-02-26T14:48:15.599Z,11.36
2017-02-26T14:49:24.369Z,11.32
2017-02-26T14:50:33.469Z,11.37
2017-02-26T14:51:42.946Z,11.32
2017-02-26T14:52:52.814Z,11.17
2017-02-26T14:54:02.293Z,11.25
2017-02-26T14:55:12.146Z,11.25
2017-02-26T14:56:22.005Z,11.19
2017-02-26T14:57:31.876Z,11.21
2017-02-26T14:58:41.348Z,11.1
2017-02-26T14:59:50.842Z,11.07
2017-02-26T15:01:00.721Z,11.02
2017-02-26T15:02:10.975Z,10.89
2017-02-26T15:03:20.455Z,10.84
2017-02-26T15:04:30.860Z,10.88
2017-02-26T15:05:40.340Z,10.85
2017-02-26T15:06:49.997Z,10.82
2017-02-26T15:07:59.468Z,10.76
2017-02-26T15:09:09.734Z,10.81
2017-02-26T15:10:19.593Z,10.88
2017-02-26T15:11:29.101Z,10.86
2017-02-26T15:12:38.585Z,10.84
2017-02-26T15:13:48.065Z,10.94
2017-02-26T15:14:57.151Z,10.85
2017-02-26T15:16:07.020Z,10.96
2017-02-26T15:17:17.251Z,10.88
2017-02-26T15:18:26.741Z,10.84
2017-02-26T15:19:35.837Z,10.76
2017-02-26T15:20:44.925Z,10.78
2017-02-26T15:21:54.031Z,10.85
2017-02-26T15:23:04.274Z,10.82
2017-02-26T15:24:13.761Z,10.79